createdAt,value
2023-02-01T00:00:05.515Z,9.30
2023-02-01T00:02:37.255Z,9.00
2023-02-01T00:05:08.123Z,9.20
2023-02-01T00:07:38.248Z,9.20
2023-02-01T00:10:10.622Z,10.30
2023-02-01T00:12:40.821Z,9.30
2023-02-01T00:15:14.113Z,8.90
2023-02-01T00:17:44.105Z,9.30
2023-02-01T00:20:15.288Z,9.20
2023-02-01T00:22:46.885Z,9.30
2023-02-01T00:25:17.059Z,9.20
2023-02-01T00:32:51.098Z,9.00
2023-02-01T00:35:21.219Z,9.50
2023-02-01T00:37:51.246Z,9.10
2023-02-01T00:40:21.842Z,9.00
2023-02-01T00:45:24.987Z,9.20
2023-02-01T00:47:54.997Z,8.80
2023-02-01T00:50:25.213Z,8.90
2023-02-01T00:52:55.323Z,9.10
2023-02-01T00:55:25.507Z,8.70
2023-02-01T00:57:55.755Z,9.10
2023-02-01T01:00:28.754Z,10.10
2023-02-01T01:02:58.849Z,9.30
2023-02-01T01:05:29.014Z,9.40
2023-02-01T01:07:59.212Z,9.40
2023-02-01T01:10:29.397Z,9.50
2023-02-01T01:12:59.808Z,9.20
2023-02-01T01:15:40.688Z,9.50
2023-02-01T01:18:11.525Z,9.60
2023-02-01T01:20:43.855Z,9.50
2023-02-01T01:23:14.690Z,9.30
2023-02-01T01:25:47.595Z,9.30
2023-02-01T01:28:29.433Z,9.30
2023-02-01T01:31:03.116Z,9.40
2023-02-01T01:33:39.279Z,9.40
2023-02-01T01:36:12.155Z,9.40
2023-02-01T01:38:43.631Z,9.30
2023-02-01T01:41:18.901Z,9.30
2023-02-01T01:43:52.387Z,9.30
2023-02-01T01:46:27.369Z,9.60
2023-02-01T01:49:04.416Z,9.00
2023-02-01T01:51:37.398Z,9.00
2023-02-01T01:54:13.040Z,8.70
2023-02-01T01:56:44.373Z,9.10
2023-02-01T01:59:14.259Z,9.20
2023-02-01T02:01:47.550Z,9.80
2023-02-01T02:06:55.518Z,9.20
2023-02-01T02:09:25.768Z,9.20
2023-02-01T02:11:55.938Z,9.20
2023-02-01T02:14:28.863Z,9.10
2023-02-01T02:17:27.279Z,8.70
2023-02-01T02:20:31.235Z,8.60
2023-02-01T02:23:48.873Z,8.70
2023-02-01T02:26:41.620Z,8.50
2023-02-01T02:29:41.485Z,9.20
2023-02-01T02:32:48.002Z,9.00
2023-02-01T02:35:30.944Z,9.80
2023-02-01T02:38:11.254Z,9.00
2023-02-01T02:40:49.215Z,9.00
2023-02-01T02:43:49.704Z,8.90
2023-02-01T02:46:37.423Z,9.70
2023-02-01T02:49:14.197Z,9.60
2023-02-01T02:52:05.698Z,8.80
2023-02-01T02:54:50.081Z,9.20
2023-02-01T02:57:36.519Z,9.20
2023-02-01T03:00:23.189Z,9.90
2023-02-01T03:03:06.739Z,9.00
2023-02-01T03:05:38.331Z,9.10
2023-02-01T03:08:15.668Z,9.10
2023-02-01T03:10:52.233Z,9.10
2023-02-01T03:13:27.846Z,9.20
2023-02-01T03:16:05.026Z,9.10
2023-02-01T03:18:41.996Z,9.20
2023-02-01T03:21:18.305Z,9.20
2023-02-01T03:23:52.842Z,9.00
2023-02-01T03:26:25.173Z,9.10
2023-02-01T03:29:01.239Z,9.00
2023-02-01T03:31:33.034Z,9.10
2023-02-01T03:34:03.389Z,9.80
2023-02-01T03:36:39.573Z,8.50
2023-02-01T03:39:18.964Z,9.00
2023-02-01T03:41:54.624Z,9.10
2023-02-01T03:44:28.705Z,9.10
2023-02-01T03:47:02.915Z,8.80
2023-02-01T03:49:37.489Z,8.80
2023-02-01T03:52:10.502Z,8.80
2023-02-01T03:54:44.158Z,8.80
2023-02-01T03:57:17.646Z,8.80
2023-02-01T03:59:49.500Z,8.90
2023-02-01T04:02:20.002Z,8.90
2023-02-01T04:04:50.097Z,9.00
2023-02-01T04:07:20.781Z,9.30
2023-02-01T04:09:53.390Z,9.20
2023-02-01T04:12:23.601Z,8.40
2023-02-01T04:14:54.140Z,8.90
2023-02-01T04:17:24.253Z,8.20
2023-02-01T04:19:55.584Z,8.80
2023-02-01T04:22:25.643Z,8.60
2023-02-01T04:24:58.236Z,9.60
2023-02-01T04:27:28.320Z,8.90
2023-02-01T04:29:58.595Z,8.40
2023-02-01T04:32:28.761Z,8.90
2023-02-01T04:34:58.798Z,8.70
2023-02-01T04:37:30.060Z,8.60
2023-02-01T04:40:04.803Z,8.70
2023-02-01T04:45:05.192Z,9.80
2023-02-01T04:47:35.328Z,8.50
2023-02-01T04:52:37.027Z,8.60
2023-02-01T04:55:10.514Z,8.80
2023-02-01T04:57:41.406Z,8.70
2023-02-01T05:00:14.317Z,8.90
2023-02-01T05:02:46.602Z,8.80
2023-02-01T05:05:16.633Z,8.90
2023-02-01T05:07:46.715Z,9.00
2023-02-01T05:10:20.395Z,8.80
2023-02-01T05:13:03.686Z,8.70
2023-02-01T05:15:33.797Z,8.60
2023-02-01T05:20:34.136Z,9.00
2023-02-01T05:23:04.626Z,8.60
2023-02-01T05:25:37.290Z,8.70
2023-02-01T05:28:07.741Z,8.70
2023-02-01T05:30:41.189Z,8.70
2023-02-01T05:33:12.225Z,8.50
2023-02-01T05:38:12.520Z,8.40
2023-02-01T05:40:50.584Z,8.50
2023-02-01T05:45:50.975Z,8.70
2023-02-01T05:50:51.262Z,9.50
2023-02-01T05:53:21.318Z,9.20
2023-02-01T05:55:53.955Z,8.10
2023-02-01T06:00:54.303Z,8.30
2023-02-01T06:03:24.586Z,8.40
2023-02-01T06:05:54.573Z,8.50
2023-02-01T06:08:25.909Z,8.40
2023-02-01T06:11:01.923Z,8.80
2023-02-01T06:13:34.263Z,8.60
2023-02-01T06:16:06.988Z,8.50
2023-02-01T06:18:37.438Z,8.20
2023-02-01T06:21:07.875Z,8.60
2023-02-01T06:23:38.198Z,7.60
2023-02-01T06:26:11.476Z,8.60
2023-02-01T06:31:12.992Z,8.10
2023-02-01T06:33:43.861Z,9.50
2023-02-01T06:36:17.071Z,8.60
2023-02-01T06:38:47.366Z,8.60
2023-02-01T06:41:21.679Z,8.60
2023-02-01T06:43:51.709Z,8.90
2023-02-01T06:46:21.831Z,8.60
2023-02-01T06:48:52.431Z,8.40
2023-02-01T06:51:27.403Z,7.40
2023-02-01T06:53:57.888Z,8.60
2023-02-01T06:56:32.440Z,8.30
2023-02-01T06:59:02.890Z,8.40
2023-02-01T07:01:32.897Z,7.40
2023-02-01T07:04:03.250Z,8.40
2023-02-01T07:06:33.471Z,8.70
2023-02-01T07:09:03.553Z,8.60
2023-02-01T07:11:36.327Z,8.40
2023-02-01T07:14:06.386Z,8.30
2023-02-01T07:16:36.483Z,9.20
2023-02-01T07:19:06.913Z,8.80
2023-02-01T07:24:08.091Z,8.90
2023-02-01T07:26:40.822Z,8.40
2023-02-01T07:31:41.158Z,8.50
2023-02-01T07:34:11.318Z,9.50
2023-02-01T07:39:11.876Z,8.50
2023-02-01T07:41:44.471Z,8.40
2023-02-01T07:44:14.955Z,8.10
2023-02-01T07:46:44.938Z,8.90
2023-02-01T07:49:15.052Z,8.60
2023-02-01T07:51:45.082Z,8.60
2023-02-01T07:54:15.186Z,8.80
2023-02-01T07:56:47.822Z,8.80
2023-02-01T07:59:18.157Z,8.60
2023-02-01T08:01:45.611Z,9.00
2023-02-01T08:04:17.074Z,9.00
2023-02-01T08:06:46.810Z,9.10
2023-02-01T08:09:17.469Z,9.20
2023-02-01T08:11:50.136Z,9.40
2023-02-01T08:14:20.212Z,9.30
2023-02-01T08:19:35.107Z,9.90
2023-02-01T08:22:07.902Z,9.40
2023-02-01T08:24:40.762Z,9.50
2023-02-01T08:27:13.822Z,8.70
2023-02-01T08:29:43.850Z,9.50
2023-02-01T08:32:14.068Z,8.60
2023-02-01T08:34:44.186Z,8.00
2023-02-01T08:37:14.226Z,10.00
2023-02-01T08:39:47.650Z,7.80
2023-02-01T08:42:33.220Z,10.50
2023-02-01T08:50:03.895Z,10.30
2023-02-01T08:52:34.011Z,11.00
2023-02-01T08:55:04.123Z,11.10
2023-02-01T08:57:37.089Z,7.70
2023-02-01T09:00:09.449Z,8.90
2023-02-01T09:10:11.972Z,10.90
2023-02-01T09:12:44.655Z,10.20
2023-02-01T09:15:15.099Z,10.30
2023-02-01T09:17:45.631Z,11.30
2023-02-01T09:20:16.618Z,11.70
2023-02-01T09:25:16.992Z,11.50
2023-02-01T09:30:23.086Z,14.10
2023-02-01T09:32:53.321Z,14.20
2023-02-01T09:35:23.371Z,14.10
2023-02-01T09:37:53.469Z,15.40
2023-02-01T09:40:24.876Z,15.30
2023-02-01T09:43:22.943Z,15.50
2023-02-01T09:45:59.703Z,17.10
2023-02-01T09:48:36.405Z,15.60
2023-02-01T09:51:11.112Z,15.10
2023-02-01T09:53:44.884Z,14.70
2023-02-01T09:56:22.049Z,15.70
2023-02-01T09:59:03.129Z,15.60
2023-02-01T10:01:33.387Z,15.70
2023-02-01T10:04:08.688Z,16.20
2023-02-01T10:07:01.084Z,17.30
2023-02-01T10:09:55.689Z,17.80
2023-02-01T10:12:55.483Z,18.00
2023-02-01T10:15:57.027Z,18.70
2023-02-01T10:19:06.356Z,18.90
2023-02-01T10:21:52.160Z,19.20
2023-02-01T10:24:43.229Z,19.80
2023-02-01T10:27:21.424Z,19.80
2023-02-01T10:29:57.510Z,19.00
2023-02-01T10:32:35.800Z,17.70
2023-02-01T10:35:12.942Z,18.50
2023-02-01T10:37:46.169Z,16.30
2023-02-01T10:40:22.914Z,16.10
2023-02-01T10:42:55.330Z,16.30
2023-02-01T10:45:28.849Z,15.50
2023-02-01T10:48:05.163Z,15.50
2023-02-01T10:50:41.536Z,15.30
2023-02-01T10:53:18.132Z,16.70
2023-02-01T10:55:53.500Z,17.60
2023-02-01T10:58:25.069Z,17.40
2023-02-01T11:01:00.217Z,16.00
2023-02-01T11:03:44.690Z,15.70
2023-02-01T11:06:22.543Z,17.70
2023-02-01T11:08:55.604Z,17.70
2023-02-01T11:11:27.550Z,19.20
2023-02-01T11:14:00.799Z,17.40
2023-02-01T11:16:37.799Z,16.60
2023-02-01T11:21:41.385Z,14.10
2023-02-01T11:24:26.607Z,14.40
2023-02-01T11:26:59.573Z,14.30
2023-02-01T11:29:33.043Z,13.10
2023-02-01T11:32:03.925Z,14.60
2023-02-01T11:34:47.529Z,13.80
2023-02-01T11:37:23.765Z,13.80
2023-02-01T11:40:01.989Z,13.70
2023-02-01T11:42:33.123Z,13.80
2023-02-01T11:45:23.274Z,13.90
2023-02-01T11:47:56.969Z,13.80
2023-02-01T11:53:27.495Z,12.70
2023-02-01T11:56:06.045Z,14.80
2023-02-01T11:59:00.585Z,13.80
2023-02-01T12:01:55.236Z,13.50
2023-02-01T12:04:55.476Z,12.80
2023-02-01T12:07:34.941Z,13.60
2023-02-01T12:10:13.601Z,13.00
2023-02-01T12:12:52.056Z,12.00
2023-02-01T12:15:32.286Z,13.40
2023-02-01T12:18:47.099Z,13.30
2023-02-01T12:21:36.062Z,13.10
2023-02-01T12:24:27.432Z,12.80
2023-02-01T12:27:12.013Z,12.10
2023-02-01T12:30:02.324Z,12.60
2023-02-01T12:32:55.379Z,13.20
2023-02-01T12:35:48.708Z,13.00
2023-02-01T12:38:35.710Z,14.00
2023-02-01T12:41:22.771Z,14.10
2023-02-01T12:43:57.539Z,14.70
2023-02-01T12:46:34.228Z,13.90
2023-02-01T12:49:09.406Z,13.60
2023-02-01T12:51:42.946Z,13.60
2023-02-01T12:54:18.923Z,14.30
2023-02-01T12:56:56.342Z,13.30
2023-02-01T12:59:32.997Z,13.30
2023-02-01T13:02:19.891Z,14.10
2023-02-01T13:05:04.328Z,13.20
2023-02-01T13:07:39.429Z,13.70
2023-02-01T13:10:18.016Z,12.70
2023-02-01T13:12:57.519Z,13.40
2023-02-01T13:15:31.359Z,13.80
2023-02-01T13:18:06.205Z,13.60
2023-02-01T13:20:40.893Z,14.40
2023-02-01T13:23:18.921Z,13.60
2023-02-01T13:25:52.183Z,13.60
2023-02-01T13:28:30.331Z,12.00
2023-02-01T13:31:21.247Z,12.50
2023-02-01T13:36:58.222Z,14.00
2023-02-01T13:39:51.797Z,12.70
2023-02-01T13:42:26.578Z,13.60
2023-02-01T13:45:05.409Z,12.80
2023-02-01T13:47:38.075Z,13.90
2023-02-01T13:50:17.476Z,12.80
2023-02-01T13:52:54.398Z,13.30
2023-02-01T13:55:36.728Z,13.60
2023-02-01T13:58:22.740Z,12.50
2023-02-01T14:01:15.460Z,13.70
2023-02-01T14:03:52.708Z,13.40
2023-02-01T14:06:44.870Z,13.60
2023-02-01T14:09:21.605Z,13.50
2023-02-01T14:11:54.727Z,12.80
2023-02-01T14:14:55.567Z,11.40
2023-02-01T14:17:44.173Z,12.50
2023-02-01T14:20:50.213Z,12.60
2023-02-01T14:23:36.316Z,12.70
2023-02-01T14:26:18.686Z,12.70
2023-02-01T14:31:51.744Z,13.10
2023-02-01T14:34:25.965Z,11.90
2023-02-01T14:37:01.031Z,14.00
2023-02-01T14:39:39.254Z,11.30
2023-02-01T14:42:24.689Z,10.90
2023-02-01T14:44:59.096Z,11.40
2023-02-01T14:50:21.387Z,11.60
2023-02-01T14:52:55.926Z,11.10
2023-02-01T14:55:32.652Z,13.00
2023-02-01T14:58:05.873Z,12.80
2023-02-01T15:00:37.096Z,12.20
2023-02-01T15:03:35.024Z,13.20
2023-02-01T15:06:07.115Z,12.90
2023-02-01T15:08:41.612Z,12.90
2023-02-01T15:11:18.561Z,10.40
2023-02-01T15:13:55.696Z,11.70
2023-02-01T15:16:27.580Z,12.20
2023-02-01T15:19:14.857Z,11.80
2023-02-01T15:21:49.852Z,13.50
2023-02-01T15:24:24.828Z,10.50
2023-02-01T15:26:59.002Z,12.70
2023-02-01T15:32:05.992Z,10.80
2023-02-01T15:34:50.753Z,12.20
2023-02-01T15:40:18.901Z,10.90
2023-02-01T15:42:56.709Z,12.20
2023-02-01T15:45:28.932Z,11.70
2023-02-01T15:48:00.951Z,12.50
2023-02-01T15:50:34.150Z,11.00
2023-02-01T15:53:06.182Z,12.10
2023-02-01T15:55:43.216Z,12.20
2023-02-01T15:58:21.841Z,11.70
2023-02-01T16:03:36.603Z,10.60
2023-02-01T16:06:09.959Z,10.90
2023-02-01T16:08:40.625Z,10.20
2023-02-01T16:11:28.708Z,12.10
2023-02-01T16:14:01.922Z,12.80
2023-02-01T16:16:33.408Z,11.70
2023-02-01T16:24:05.593Z,11.00
2023-02-01T16:26:38.600Z,12.50
2023-02-01T16:29:11.392Z,12.40
2023-02-01T16:31:43.237Z,12.50
2023-02-01T16:34:18.707Z,10.80
2023-02-01T16:36:53.321Z,11.90
2023-02-01T16:39:24.095Z,11.10
2023-02-01T16:41:54.685Z,11.70
2023-02-01T16:44:27.409Z,13.20
2023-02-01T16:46:57.621Z,11.20
2023-02-01T16:49:29.306Z,10.90
2023-02-01T16:52:02.440Z,11.60
2023-02-01T16:57:02.906Z,11.50
2023-02-01T16:59:35.568Z,11.80
2023-02-01T17:02:05.680Z,12.70
2023-02-01T17:04:36.786Z,12.30
2023-02-01T17:07:10.438Z,11.80
2023-02-01T17:09:40.879Z,9.80
2023-02-01T17:12:25.726Z,10.10
2023-02-01T17:14:58.652Z,11.10
2023-02-01T17:17:38.817Z,12.20
2023-02-01T17:20:10.951Z,12.00
2023-02-01T17:22:41.091Z,11.90
2023-02-01T17:25:19.401Z,10.80
2023-02-01T17:30:22.833Z,10.80
2023-02-01T17:32:53.098Z,12.50
2023-02-01T17:35:25.068Z,12.40
2023-02-01T17:37:56.440Z,11.20
2023-02-01T17:42:59.055Z,11.00
2023-02-01T17:45:40.636Z,11.70
2023-02-01T17:48:11.773Z,11.60
2023-02-01T17:50:42.692Z,10.80
2023-02-01T17:53:14.371Z,11.20
2023-02-01T17:58:18.234Z,11.50
2023-02-01T18:00:51.787Z,10.90
2023-02-01T18:03:27.704Z,11.10
2023-02-01T18:05:59.598Z,12.30
2023-02-01T18:08:33.479Z,12.90
2023-02-01T18:11:05.116Z,11.60
2023-02-01T18:13:35.907Z,12.40
2023-02-01T18:16:09.378Z,12.20
2023-02-01T18:18:39.570Z,11.00
2023-02-01T18:23:40.152Z,11.40
2023-02-01T18:26:14.101Z,10.90
2023-02-01T18:28:44.486Z,11.00
2023-02-01T18:31:25.334Z,10.00
2023-02-01T18:33:57.469Z,12.10
2023-02-01T18:36:28.741Z,12.40
2023-02-01T18:38:58.922Z,11.50
2023-02-01T18:46:32.322Z,12.30
2023-02-01T18:51:32.752Z,13.20
2023-02-01T18:54:02.851Z,11.90
2023-02-01T18:56:33.197Z,12.90
2023-02-01T19:01:36.126Z,12.80
2023-02-01T19:04:20.443Z,12.90
2023-02-01T19:09:26.093Z,13.40
2023-02-01T19:11:56.180Z,11.40
2023-02-01T19:14:26.376Z,11.20
2023-02-01T19:16:59.830Z,11.00
2023-02-01T19:19:30.367Z,12.30
2023-02-01T19:24:31.546Z,12.40
2023-02-01T19:27:01.684Z,12.00
2023-02-01T19:32:04.652Z,11.90
2023-02-01T19:34:35.211Z,12.70
2023-02-01T19:37:05.514Z,13.20
2023-02-01T19:39:37.864Z,11.60
2023-02-01T19:42:08.160Z,12.80
2023-02-01T19:47:12.071Z,12.60
2023-02-01T19:54:43.018Z,12.70
2023-02-01T19:57:13.265Z,12.40
2023-02-01T19:59:43.504Z,12.40
2023-02-01T20:02:16.483Z,12.00
2023-02-01T20:09:47.224Z,12.10
2023-02-01T20:12:18.894Z,12.10
2023-02-01T20:14:49.174Z,12.00
2023-02-01T20:25:49.796Z,11.80
2023-02-01T20:30:50.396Z,12.70
2023-02-01T20:35:53.697Z,12.30
2023-02-01T20:38:23.877Z,11.30
2023-02-01T20:40:54.271Z,12.80
2023-02-01T20:48:25.180Z,12.70
2023-02-01T20:51:00.367Z,11.80
2023-02-01T20:53:30.652Z,12.30
2023-02-01T20:56:01.616Z,11.60
2023-02-01T20:58:32.652Z,11.70
2023-02-01T21:01:03.358Z,12.70
2023-02-01T21:03:33.489Z,11.30
2023-02-01T21:06:07.511Z,11.80
2023-02-01T21:08:37.941Z,12.10
2023-02-01T21:11:10.595Z,12.00
2023-02-01T21:13:44.248Z,11.80
2023-02-01T21:16:16.310Z,11.20
2023-02-01T21:18:46.503Z,13.50
2023-02-01T21:21:19.213Z,12.50
2023-02-01T21:23:49.637Z,11.30
2023-02-01T21:26:22.594Z,12.20
2023-02-01T21:28:53.936Z,12.10
2023-02-01T21:31:25.975Z,12.90
2023-02-01T21:33:56.186Z,11.00
2023-02-01T21:36:32.318Z,13.60
2023-02-01T21:39:03.766Z,10.70
2023-02-01T21:41:47.993Z,13.50
2023-02-01T21:46:48.894Z,12.40
2023-02-01T21:49:19.009Z,12.70
2023-02-01T21:51:51.727Z,12.70
2023-02-01T21:54:21.768Z,12.80
2023-02-01T21:59:22.310Z,12.40
2023-02-01T22:01:52.438Z,12.70
2023-02-01T22:04:22.524Z,12.00
2023-02-01T22:06:55.199Z,11.90
2023-02-01T22:09:28.176Z,11.90
2023-02-01T22:11:58.890Z,11.90
2023-02-01T22:14:28.949Z,9.90
2023-02-01T22:16:59.232Z,12.80
2023-02-01T22:22:02.503Z,10.80
2023-02-01T22:24:32.687Z,11.20
2023-02-01T22:27:13.440Z,11.60
2023-02-01T22:32:16.441Z,11.80
2023-02-01T22:37:19.532Z,10.80
2023-02-01T22:44:50.396Z,12.30
2023-02-01T22:47:20.665Z,12.90
2023-02-01T22:49:50.794Z,12.70
2023-02-01T22:52:23.577Z,12.40
2023-02-01T22:57:24.006Z,11.60
2023-02-01T22:59:53.989Z,12.70
2023-02-01T23:02:24.148Z,11.20
2023-02-01T23:07:27.379Z,12.10
2023-02-01T23:09:57.421Z,13.70
2023-02-01T23:15:10.002Z,12.80
2023-02-01T23:17:40.490Z,12.90
2023-02-01T23:20:15.188Z,10.50
2023-02-01T23:22:49.764Z,11.50
2023-02-01T23:25:21.153Z,11.40
2023-02-01T23:27:51.410Z,11.90
2023-02-01T23:30:21.660Z,13.20
2023-02-01T23:37:55.538Z,11.20
2023-02-01T23:40:25.597Z,11.30
2023-02-01T23:43:07.925Z,12.70
2023-02-01T23:45:37.954Z,10.80
2023-02-01T23:50:39.049Z,11.10
2023-02-01T23:53:11.735Z,11.80
2023-02-01T23:55:41.755Z,11.60
2023-02-01T23:58:11.824Z,12.20
